createdAt,value
2018-07-25T00:01:56.024Z,99.90
2018-07-25T00:04:25.456Z,99.90
2018-07-25T00:06:55.041Z,99.90
2018-07-25T00:09:24.366Z,99.90
2018-07-25T00:11:53.757Z,99.90
2018-07-25T00:14:23.652Z,99.90
2018-07-25T00:16:53.117Z,99.90
2018-07-25T00:19:22.509Z,99.90
2018-07-25T00:21:51.975Z,99.90
2018-07-25T00:24:21.426Z,99.90
2018-07-25T00:26:50.896Z,99.90
2018-07-25T00:29:20.709Z,99.90
2018-07-25T00:31:50.105Z,99.90
2018-07-25T00:34:19.702Z,99.90
2018-07-25T00:36:49.058Z,99.90
2018-07-25T00:44:17.227Z,99.90
2018-07-25T00:46:46.612Z,99.90
2018-07-25T00:49:16.111Z,99.90
2018-07-25T00:51:45.685Z,99.90
2018-07-25T00:54:15.142Z,99.90
2018-07-25T00:56:44.489Z,99.90
2018-07-25T00:59:13.979Z,99.90
2018-07-25T01:04:12.174Z,99.90
2018-07-25T01:06:41.535Z,99.90
2018-07-25T01:09:11.788Z,99.90
2018-07-25T01:14:10.098Z,99.90
2018-07-25T01:16:39.543Z,99.90
2018-07-25T01:19:09.005Z,99.90
2018-07-25T01:21:38.478Z,99.90
2018-07-25T01:24:07.946Z,99.90
2018-07-25T01:26:37.343Z,99.90
2018-07-25T01:29:06.880Z,99.90
2018-07-25T01:31:36.356Z,99.90
2018-07-25T01:34:05.733Z,99.90
2018-07-25T01:36:35.078Z,99.90
2018-07-25T01:39:06.601Z,99.90
2018-07-25T01:41:35.929Z,99.90
2018-07-25T01:44:05.416Z,99.90
2018-07-25T01:46:34.836Z,99.90
2018-07-25T01:49:04.330Z,99.90
2018-07-25T01:51:33.768Z,99.90
2018-07-25T01:56:32.118Z,99.90
2018-07-25T01:59:01.502Z,99.90
2018-07-25T02:01:30.991Z,99.90
2018-07-25T02:04:00.399Z,99.90
2018-07-25T02:06:29.949Z,99.90
2018-07-25T02:08:59.349Z,99.90
2018-07-25T02:11:28.948Z,99.90
2018-07-25T02:13:58.451Z,99.90
2018-07-25T02:16:28.005Z,99.90
2018-07-25T02:18:57.596Z,99.90
2018-07-25T02:21:27.032Z,99.90
2018-07-25T02:23:56.368Z,99.90
2018-07-25T02:26:25.977Z,99.90
2018-07-25T02:28:55.381Z,99.90
2018-07-25T02:31:24.749Z,99.90
2018-07-25T02:33:59.754Z,99.90
2018-07-25T02:36:29.252Z,99.90
2018-07-25T02:38:58.747Z,99.90
2018-07-25T02:41:28.242Z,99.90
2018-07-25T02:43:57.674Z,99.90
2018-07-25T02:48:55.997Z,99.90
2018-07-25T02:51:25.393Z,99.90
2018-07-25T02:53:54.891Z,99.90
2018-07-25T02:56:24.442Z,99.90
2018-07-25T02:58:53.871Z,99.90
2018-07-25T03:01:23.265Z,99.90
2018-07-25T03:03:52.669Z,99.90
2018-07-25T03:06:22.189Z,99.90
2018-07-25T03:08:51.611Z,99.90
2018-07-25T03:11:21.083Z,99.90
2018-07-25T03:13:50.492Z,99.90
2018-07-25T03:16:19.931Z,99.90
2018-07-25T03:18:49.283Z,99.90
2018-07-25T03:21:18.965Z,99.90
2018-07-25T03:23:48.484Z,99.90
2018-07-25T03:26:17.865Z,99.90
2018-07-25T03:28:47.320Z,99.90
2018-07-25T03:31:17.005Z,99.90
2018-07-25T03:36:15.314Z,99.90
2018-07-25T03:38:44.823Z,99.90
2018-07-25T03:41:14.214Z,99.90
2018-07-25T03:43:43.656Z,99.90
2018-07-25T03:46:13.067Z,99.90
2018-07-25T03:48:42.595Z,99.90
2018-07-25T03:51:12.041Z,99.90
2018-07-25T03:53:41.372Z,99.90
2018-07-25T03:58:40.284Z,99.90
2018-07-25T04:03:38.590Z,99.90
2018-07-25T04:06:08.589Z,99.90
2018-07-25T04:08:38.038Z,99.90
2018-07-25T04:11:07.709Z,99.90
2018-07-25T04:13:37.128Z,99.90
2018-07-25T04:16:06.658Z,99.90
2018-07-25T04:18:36.039Z,99.90
2018-07-25T04:21:06.303Z,99.90
2018-07-25T04:23:35.772Z,99.90
2018-07-25T04:26:05.205Z,99.90
2018-07-25T04:28:34.569Z,99.90
2018-07-25T04:31:04.150Z,99.90
2018-07-25T04:36:02.664Z,99.90
2018-07-25T04:38:32.109Z,99.90
2018-07-25T04:41:01.487Z,99.90
2018-07-25T04:43:30.913Z,99.90
2018-07-25T04:46:00.412Z,99.90
2018-07-25T04:48:29.798Z,99.90
2018-07-25T04:50:59.294Z,99.90
2018-07-25T04:53:28.917Z,99.90
2018-07-25T04:55:58.542Z,99.90
2018-07-25T04:58:29.549Z,99.90
2018-07-25T05:00:59.873Z,99.90
2018-07-25T05:03:29.425Z,99.90
2018-07-25T05:05:58.966Z,99.90
2018-07-25T05:08:28.576Z,99.90
2018-07-25T05:10:58.099Z,99.90
2018-07-25T05:13:28.039Z,99.90
2018-07-25T05:15:57.435Z,99.90
2018-07-25T05:18:27.055Z,99.90
2018-07-25T05:20:56.443Z,99.90
2018-07-25T05:23:25.978Z,99.90
2018-07-25T05:28:24.745Z,99.90
2018-07-25T05:30:54.355Z,99.90
2018-07-25T05:33:23.838Z,99.90
2018-07-25T05:35:53.303Z,99.90
2018-07-25T05:38:22.808Z,99.90
2018-07-25T05:40:52.207Z,99.90
2018-07-25T05:43:21.671Z,99.90
2018-07-25T05:45:51.115Z,99.90
2018-07-25T05:48:20.475Z,99.90
2018-07-25T05:50:49.960Z,99.90
2018-07-25T05:53:19.305Z,99.90
2018-07-25T05:55:48.765Z,99.90
2018-07-25T05:58:18.147Z,99.90
2018-07-25T06:00:47.632Z,99.90
2018-07-25T06:03:17.091Z,99.90
2018-07-25T06:05:46.449Z,99.90
2018-07-25T06:08:15.901Z,99.90
2018-07-25T06:10:45.389Z,99.90
2018-07-25T06:13:14.885Z,99.90
2018-07-25T06:15:44.611Z,99.90
2018-07-25T06:18:14.057Z,99.90
2018-07-25T06:20:43.576Z,99.90
2018-07-25T06:23:12.951Z,99.90
2018-07-25T06:25:42.423Z,99.90
2018-07-25T06:28:12.001Z,99.90
2018-07-25T06:30:41.550Z,99.90
2018-07-25T06:33:10.931Z,98.40
2018-07-25T06:35:40.500Z,99.20
2018-07-25T06:38:10.053Z,97.20
2018-07-25T06:40:39.411Z,96.00
2018-07-25T06:45:37.772Z,96.80
2018-07-25T06:48:07.103Z,97.60
2018-07-25T06:50:36.601Z,96.80
2018-07-25T06:53:06.101Z,97.30
2018-07-25T06:55:35.649Z,96.00
2018-07-25T06:58:05.281Z,94.70
2018-07-25T07:00:34.656Z,91.80
2018-07-25T07:03:04.136Z,89.90
2018-07-25T07:08:02.516Z,90.80
2018-07-25T07:10:32.311Z,86.30
2018-07-25T07:13:01.765Z,89.60
2018-07-25T07:15:31.480Z,89.90
2018-07-25T07:18:00.911Z,90.50
2018-07-25T07:20:30.516Z,90.10
2018-07-25T07:23:00.003Z,90.30
2018-07-25T07:25:30.508Z,89.30
2018-07-25T07:28:00.168Z,90.80
2018-07-25T07:30:29.690Z,89.30
2018-07-25T07:32:59.147Z,85.80
2018-07-25T07:35:28.545Z,84.40
2018-07-25T07:37:57.949Z,78.90
2018-07-25T07:40:27.337Z,72.40
2018-07-25T07:42:56.894Z,71.40
2018-07-25T07:45:26.357Z,75.30
2018-07-25T07:47:55.861Z,70.70
2018-07-25T07:50:26.118Z,68.60
2018-07-25T07:52:55.579Z,67.20
2018-07-25T07:55:25.006Z,66.30
2018-07-25T07:57:54.458Z,66.70
2018-07-25T08:02:52.901Z,61.10
2018-07-25T08:05:22.280Z,59.20
2018-07-25T08:07:51.699Z,62.80
2018-07-25T08:10:21.210Z,62.40
2018-07-25T08:12:50.577Z,63.20
2018-07-25T08:15:20.008Z,60.80
2018-07-25T08:17:49.646Z,60.00
2018-07-25T08:20:19.066Z,56.20
2018-07-25T08:22:48.634Z,57.90
2018-07-25T08:25:18.012Z,59.60
2018-07-25T08:27:47.460Z,56.60
2018-07-25T08:30:16.838Z,59.50
2018-07-25T08:32:46.426Z,61.30
2018-07-25T08:35:15.814Z,59.70
2018-07-25T08:37:45.884Z,55.90
2018-07-25T08:40:15.338Z,52.10
2018-07-25T08:42:44.707Z,51.50
2018-07-25T08:45:14.102Z,51.30
2018-07-25T08:47:43.564Z,52.80
2018-07-25T08:50:12.982Z,52.70
2018-07-25T08:52:42.419Z,49.50
2018-07-25T08:55:11.937Z,49.90
2018-07-25T08:57:41.543Z,50.10
2018-07-25T09:00:10.979Z,46.20
2018-07-25T09:02:40.484Z,45.40
2018-07-25T09:05:09.919Z,45.40
2018-07-25T09:07:39.527Z,43.60
2018-07-25T09:10:09.137Z,43.30
2018-07-25T09:12:38.688Z,43.60
2018-07-25T09:15:08.114Z,42.50
2018-07-25T09:17:37.622Z,42.00
2018-07-25T09:20:07.231Z,43.00
2018-07-25T09:22:36.772Z,42.40
2018-07-25T09:25:07.267Z,40.70
2018-07-25T09:27:36.685Z,40.90
2018-07-25T09:30:06.182Z,42.70
2018-07-25T09:32:35.859Z,41.80
2018-07-25T09:35:05.503Z,41.10
2018-07-25T09:37:35.104Z,39.10
2018-07-25T09:40:04.660Z,39.20
2018-07-25T09:42:34.107Z,36.70
2018-07-25T09:45:04.400Z,38.40
2018-07-25T09:47:33.790Z,35.20
2018-07-25T09:50:03.508Z,35.20
2018-07-25T09:52:33.034Z,36.30
2018-07-25T09:55:02.562Z,36.30
2018-07-25T09:57:32.008Z,36.10
2018-07-25T10:00:01.983Z,36.90
2018-07-25T10:02:31.421Z,36.30
2018-07-25T10:05:00.863Z,35.90
2018-07-25T10:07:30.259Z,36.70
2018-07-25T10:10:00.230Z,36.90
2018-07-25T10:12:29.677Z,36.10
2018-07-25T10:14:59.152Z,35.30
2018-07-25T10:17:28.682Z,35.40
2018-07-25T10:19:58.223Z,37.00
2018-07-25T10:22:27.717Z,36.90
2018-07-25T10:27:26.283Z,35.70
2018-07-25T10:29:55.697Z,36.40
2018-07-25T10:32:25.161Z,36.60
2018-07-25T10:34:54.757Z,36.00
2018-07-25T10:37:24.215Z,36.70
2018-07-25T10:39:53.799Z,35.90
2018-07-25T10:42:23.372Z,35.80
2018-07-25T10:44:52.919Z,36.20
2018-07-25T10:47:22.528Z,35.50
2018-07-25T10:49:52.754Z,35.50
2018-07-25T10:52:22.300Z,35.80
2018-07-25T10:54:53.417Z,34.90
2018-07-25T10:57:23.126Z,34.90
2018-07-25T10:59:53.203Z,35.00
2018-07-25T11:02:22.654Z,36.00
2018-07-25T11:04:52.243Z,34.60
2018-07-25T11:07:21.732Z,33.30
2018-07-25T11:09:51.380Z,32.60
2018-07-25T11:12:20.939Z,32.40
2018-07-25T11:14:50.581Z,33.50
2018-07-25T11:17:21.063Z,32.30
2018-07-25T11:19:50.690Z,32.80
2018-07-25T11:22:20.124Z,32.10
2018-07-25T11:24:49.620Z,30.30
2018-07-25T11:27:19.178Z,30.10
2018-07-25T11:29:48.801Z,31.40
2018-07-25T11:32:18.444Z,31.40
2018-07-25T11:34:47.930Z,32.30
2018-07-25T11:37:17.407Z,33.00
2018-07-25T11:39:47.052Z,34.20
2018-07-25T11:42:16.560Z,32.70
2018-07-25T11:44:46.072Z,32.80
2018-07-25T11:47:15.752Z,32.40
2018-07-25T11:49:45.193Z,31.60
2018-07-25T11:52:14.664Z,31.80
2018-07-25T11:54:44.272Z,32.20
2018-07-25T11:57:13.707Z,30.40
2018-07-25T11:59:43.167Z,29.90
2018-07-25T12:02:12.610Z,29.90
2018-07-25T12:04:42.044Z,31.00
2018-07-25T12:07:11.390Z,31.30
2018-07-25T12:09:40.858Z,30.40
2018-07-25T12:12:11.099Z,30.30
2018-07-25T12:14:40.571Z,30.40
2018-07-25T12:17:10.095Z,30.20
2018-07-25T12:19:39.122Z,30.20
2018-07-25T12:22:08.184Z,30.40
2018-07-25T12:24:37.299Z,30.50
2018-07-25T12:27:06.360Z,30.60
2018-07-25T12:29:35.354Z,30.20
2018-07-25T12:32:04.450Z,30.00
2018-07-25T12:34:33.459Z,30.60
2018-07-25T12:37:02.587Z,30.00
2018-07-25T12:39:31.634Z,30.20
2018-07-25T12:42:00.754Z,29.10
2018-07-25T12:44:29.848Z,29.10
2018-07-25T12:46:58.870Z,29.20
2018-07-25T12:49:27.917Z,29.20
2018-07-25T12:51:56.955Z,29.00
2018-07-25T12:54:26.006Z,28.50
2018-07-25T12:56:55.049Z,29.10
2018-07-25T12:59:24.314Z,29.10
2018-07-25T13:01:53.461Z,29.10
2018-07-25T13:06:51.142Z,29.40
2018-07-25T13:11:48.841Z,29.40
2018-07-25T13:14:17.876Z,29.80
2018-07-25T13:16:46.902Z,30.00
2018-07-25T13:21:44.608Z,30.30
2018-07-25T13:24:13.707Z,30.00
2018-07-25T13:26:42.781Z,29.30
2018-07-25T13:29:11.883Z,28.90
2018-07-25T13:31:41.748Z,29.20
2018-07-25T13:34:10.838Z,29.50
2018-07-25T13:36:39.889Z,29.80
2018-07-25T13:39:09.242Z,30.30
2018-07-25T13:41:38.354Z,30.00
2018-07-25T13:46:36.111Z,30.00
2018-07-25T13:49:05.387Z,30.30
2018-07-25T13:51:34.446Z,30.00
2018-07-25T13:54:04.467Z,29.10
2018-07-25T13:59:02.821Z,29.20
2018-07-25T14:01:32.251Z,28.70
2018-07-25T14:04:02.467Z,28.60
2018-07-25T14:06:31.769Z,28.20
2018-07-25T14:09:02.682Z,28.40
2018-07-25T14:11:32.428Z,29.50
2018-07-25T14:14:01.589Z,30.80
2018-07-25T14:16:30.969Z,30.50
2018-07-25T14:21:28.983Z,30.70
2018-07-25T14:23:59.106Z,30.70
2018-07-25T14:26:28.434Z,30.60
2018-07-25T14:28:58.073Z,30.10
2018-07-25T14:31:27.551Z,30.50
2018-07-25T14:33:57.015Z,29.70
2018-07-25T14:36:26.165Z,29.60
2018-07-25T14:38:55.275Z,29.20
2018-07-25T14:41:24.357Z,29.50
2018-07-25T14:43:54.132Z,29.00
2018-07-25T14:46:23.554Z,29.30
2018-07-25T14:48:52.977Z,30.20
2018-07-25T14:51:22.266Z,30.30
2018-07-25T14:53:51.419Z,31.40
2018-07-25T14:58:49.317Z,34.30
2018-07-25T15:01:18.715Z,35.00
2018-07-25T15:03:48.105Z,36.30
2018-07-25T15:06:17.478Z,37.70
2018-07-25T15:08:46.532Z,37.70
2018-07-25T15:11:15.860Z,37.80
2018-07-25T15:13:45.984Z,38.00
2018-07-25T15:16:15.040Z,38.60
2018-07-25T15:18:44.252Z,38.70
2018-07-25T15:21:13.521Z,39.50
2018-07-25T15:23:53.514Z,40.30
2018-07-25T15:26:22.830Z,41.70
2018-07-25T15:28:52.026Z,41.60
2018-07-25T15:31:21.337Z,42.00
2018-07-25T15:33:51.169Z,42.80
2018-07-25T15:38:55.989Z,44.20
2018-07-25T15:41:25.698Z,44.70
2018-07-25T15:43:55.001Z,45.30
2018-07-25T15:46:24.269Z,44.50
2018-07-25T15:48:53.770Z,44.80
2018-07-25T15:51:22.875Z,45.20
2018-07-25T15:53:52.004Z,46.00
2018-07-25T15:56:21.069Z,46.50
2018-07-25T15:58:50.321Z,48.30
2018-07-25T16:01:19.775Z,46.10
2018-07-25T16:03:48.908Z,44.80
2018-07-25T16:06:18.291Z,43.60
2018-07-25T16:08:47.477Z,45.50
2018-07-25T16:11:17.350Z,45.70
2018-07-25T16:13:46.654Z,47.30
2018-07-25T16:16:15.918Z,49.00
2018-07-25T16:18:45.206Z,49.30
2018-07-25T16:21:14.325Z,52.70
2018-07-25T16:26:12.540Z,87.30
2018-07-25T16:28:41.790Z,98.70
2018-07-25T16:31:11.378Z,99.90
2018-07-25T16:33:41.585Z,97.40
2018-07-25T16:36:11.771Z,99.70
2018-07-25T16:38:40.843Z,99.90
2018-07-25T16:41:10.123Z,99.90
2018-07-25T16:43:39.191Z,99.90
2018-07-25T16:46:08.238Z,99.90
2018-07-25T16:48:37.300Z,99.90
2018-07-25T16:51:06.390Z,99.90
2018-07-25T16:53:35.429Z,99.90
2018-07-25T16:56:04.574Z,99.90
2018-07-25T16:58:33.759Z,99.90
2018-07-25T17:01:02.919Z,99.90
2018-07-25T17:03:32.128Z,99.90
2018-07-25T17:08:30.582Z,99.90
2018-07-25T17:10:59.694Z,99.90
2018-07-25T17:15:57.851Z,99.90
2018-07-25T17:18:27.097Z,99.90
2018-07-25T17:20:56.302Z,99.90
2018-07-25T17:23:25.550Z,99.90
2018-07-25T17:25:54.812Z,99.90
2018-07-25T17:28:24.153Z,99.90
2018-07-25T17:30:53.269Z,99.90
2018-07-25T17:33:22.458Z,99.90
2018-07-25T17:35:51.520Z,99.90
2018-07-25T17:38:20.810Z,99.90
2018-07-25T17:40:51.060Z,99.90
2018-07-25T17:43:20.188Z,99.90
2018-07-25T17:45:49.270Z,99.90
2018-07-25T17:48:18.517Z,99.90
2018-07-25T17:50:47.611Z,99.90
2018-07-25T17:55:46.108Z,99.90
2018-07-25T17:58:15.211Z,99.90
2018-07-25T18:00:44.195Z,99.90
2018-07-25T18:05:42.015Z,99.90
2018-07-25T18:08:11.133Z,99.90
2018-07-25T18:10:40.152Z,99.90
2018-07-25T18:13:14.494Z,99.90
2018-07-25T18:15:43.817Z,99.90
2018-07-25T18:18:12.818Z,99.90
2018-07-25T18:20:41.882Z,99.90
2018-07-25T18:23:10.986Z,99.90
2018-07-25T18:25:40.047Z,99.90
2018-07-25T18:28:09.098Z,99.90
2018-07-25T18:30:38.241Z,99.90
2018-07-25T18:33:07.455Z,99.90
2018-07-25T18:35:36.802Z,99.90
2018-07-25T18:38:06.015Z,99.90
2018-07-25T18:40:35.149Z,99.90
2018-07-25T18:43:04.317Z,99.90
2018-07-25T18:45:33.349Z,99.90
2018-07-25T18:48:02.446Z,99.90
2018-07-25T18:50:31.569Z,99.90
2018-07-25T18:53:00.681Z,99.90
2018-07-25T18:55:29.794Z,99.90
2018-07-25T18:57:58.999Z,99.90
2018-07-25T19:00:28.053Z,99.90
2018-07-25T19:02:57.177Z,99.90
2018-07-25T19:05:30.726Z,99.90
2018-07-25T19:08:01.144Z,99.90
2018-07-25T19:10:30.671Z,99.90
2018-07-25T19:12:59.958Z,99.90
2018-07-25T19:15:30.403Z,99.90
2018-07-25T19:17:59.875Z,99.90
2018-07-25T19:20:29.143Z,99.90
2018-07-25T19:22:58.158Z,99.90
2018-07-25T19:25:27.245Z,99.90
2018-07-25T19:27:56.397Z,99.90
2018-07-25T19:30:25.456Z,99.90
2018-07-25T19:32:54.499Z,99.90
2018-07-25T19:35:23.550Z,99.90
2018-07-25T19:37:52.667Z,99.90
2018-07-25T19:40:21.839Z,99.90
2018-07-25T19:42:51.016Z,99.90
2018-07-25T19:45:20.165Z,99.90
2018-07-25T19:47:49.264Z,99.90
2018-07-25T19:50:18.962Z,99.90
2018-07-25T19:52:48.145Z,99.90
2018-07-25T19:55:17.286Z,99.90
2018-07-25T20:00:16.552Z,99.90
2018-07-25T20:02:44.401Z,99.90
2018-07-25T20:05:13.749Z,99.90
2018-07-25T20:07:42.805Z,99.90
2018-07-25T20:10:11.911Z,99.90
2018-07-25T20:12:41.052Z,99.90
2018-07-25T20:15:15.665Z,99.90
2018-07-25T20:20:13.466Z,99.90
2018-07-25T20:22:42.665Z,99.90
2018-07-25T20:27:40.443Z,99.90
2018-07-25T20:30:10.072Z,99.90
2018-07-25T20:32:39.613Z,99.90
2018-07-25T20:35:08.638Z,99.90
2018-07-25T20:37:37.953Z,99.90
2018-07-25T20:42:35.965Z,99.90
2018-07-25T20:45:05.640Z,99.60
2018-07-25T20:50:03.508Z,99.90
2018-07-25T20:52:32.624Z,99.90
2018-07-25T20:55:01.717Z,99.90
2018-07-25T20:59:59.565Z,99.90
2018-07-25T21:02:28.697Z,99.90
2018-07-25T21:04:57.756Z,98.40
2018-07-25T21:07:26.891Z,94.90
2018-07-25T21:09:56.243Z,99.90
2018-07-25T21:12:25.654Z,99.90
2018-07-25T21:14:54.705Z,99.90
2018-07-25T21:17:24.470Z,99.90
2018-07-25T21:19:53.487Z,99.90
2018-07-25T21:22:23.378Z,99.90
2018-07-25T21:24:52.408Z,99.90
2018-07-25T21:27:21.493Z,99.90
2018-07-25T21:32:19.240Z,99.90
2018-07-25T21:34:48.327Z,99.90
2018-07-25T21:37:17.532Z,99.90
2018-07-25T21:39:46.580Z,99.90
2018-07-25T21:42:15.790Z,99.90
2018-07-25T21:44:44.832Z,99.90
2018-07-25T21:47:14.013Z,99.90
2018-07-25T21:49:43.591Z,99.90
2018-07-25T21:52:12.622Z,99.90
2018-07-25T21:54:41.749Z,99.90
2018-07-25T21:57:10.849Z,99.90
2018-07-25T21:59:39.953Z,99.90
2018-07-25T22:07:06.337Z,99.90
2018-07-25T22:09:35.367Z,99.90
2018-07-25T22:12:05.429Z,99.90
2018-07-25T22:14:34.558Z,99.90
2018-07-25T22:17:03.598Z,99.90
2018-07-25T22:19:32.660Z,99.90
2018-07-25T22:22:01.848Z,99.90
2018-07-25T22:24:30.944Z,99.90
2018-07-25T22:27:00.174Z,99.90
2018-07-25T22:29:29.313Z,99.90
2018-07-25T22:31:58.349Z,99.90
2018-07-25T22:34:27.408Z,99.90
2018-07-25T22:36:56.419Z,99.90
2018-07-25T22:39:25.456Z,99.90
2018-07-25T22:46:51.697Z,99.90
2018-07-25T22:51:49.434Z,99.90
2018-07-25T22:54:18.565Z,99.90
2018-07-25T22:56:47.577Z,99.90
2018-07-25T22:59:16.581Z,99.90
2018-07-25T23:04:14.236Z,99.90
2018-07-25T23:06:43.273Z,99.90
2018-07-25T23:09:12.573Z,99.90
2018-07-25T23:11:42.208Z,99.90
2018-07-25T23:14:11.347Z,99.90
2018-07-25T23:16:41.278Z,99.90
2018-07-25T23:19:10.291Z,99.90
2018-07-25T23:21:39.381Z,99.90
2018-07-25T23:24:08.491Z,99.90
2018-07-25T23:26:37.543Z,99.90
2018-07-25T23:31:35.202Z,99.90
2018-07-25T23:34:04.242Z,99.90
2018-07-25T23:36:33.275Z,99.90
2018-07-25T23:39:02.296Z,99.90
2018-07-25T23:44:00.018Z,99.90
2018-07-25T23:46:29.010Z,99.90
2018-07-25T23:48:58.005Z,99.90
2018-07-25T23:51:27.032Z,99.90
2018-07-25T23:53:56.044Z,99.90
2018-07-25T23:56:25.112Z,99.90
2018-07-25T23:58:54.114Z,99.90
